Time;durP1;ratioP1;P1;durP2;ratioP2;P2;SDS_P1;SDS_P2;PMS_P1;PMS_P2;Temp;Humidity;BMP_temperature;BMP_pressure;BME280_temperature;BME280_humidity;BME280_pressure;Samples;Min_cycle;Max_cycle;Signal;HPM_P1;HPM_P2
2022/03/18 00:02:05;;;;;;;;;;;;;;;19.47;58.00;103156.47;5001167;28;1822;-42
2022/03/18 00:04:34;;;;;;;;;;;;;;;19.43;58.05;103141.47;5011310;28;1810;-42
2022/03/18 00:07:01;;;;;;;;;;;;;;;19.41;58.81;103154.09;5005229;28;1066;-42
2022/03/18 00:09:27;;;;;;;;;;;;;;;19.26;58.17;103138.84;5006413;28;1796;-42
2022/03/18 00:11:56;;;;;;;;;;;;;;;19.13;59.18;103159.19;5009089;28;1569;-42
2022/03/18 00:14:32;;;;;;;;;;;;;;;19.07;58.85;103147.81;5002369;28;1984;-43
2022/03/18 00:16:59;;;;;;;;;;;;;;;18.97;59.64;103156.41;5013241;28;1607;-42
2022/03/18 00:19:28;;;;;;;;;;;;;;;18.93;59.48;103150.31;5008255;28;1564;-42
2022/03/18 00:22:01;;;;;;;;;;;;;;;18.79;59.76;103140.28;5010337;28;1557;-42
2022/03/18 00:24:27;;;;;;;;;;;;;;;18.75;59.07;103143.16;5010552;28;1754;-42
2022/03/18 00:26:56;;;;;;;;;;;;;;;18.71;59.00;103144.25;5012815;28;1680;-42
2022/03/18 00:29:23;;;;;;;;;;;;;;;18.65;58.83;103145.44;5009093;28;1642;-43
2022/03/18 00:31:50;;;;;;;;;;;;;;;18.53;59.58;103138.00;5011382;28;1538;-42
2022/03/18 00:34:20;;;;;;;;;;;;;;;18.51;59.08;103143.41;5014157;28;1914;-42
2022/03/18 00:36:49;;;;;;;;;;;;;;;18.51;58.94;103150.59;5011624;28;1779;-42
2022/03/18 00:39:18;;;;;;;;;;;;;;;18.44;58.95;103155.38;5013917;28;1722;-42
2022/03/18 00:41:44;;;;;;;;;;;;;;;18.43;58.60;103148.28;5008392;28;1746;-43
2022/03/18 00:44:20;;;;;;;;;;;;;;;18.40;58.67;103143.06;5003970;28;1780;-42
2022/03/18 00:46:50;;;;;;;;;;;;;;;18.40;59.01;103153.78;5007197;28;1745;-42
2022/03/18 00:52:07;;;;;;;;;;;;;;;18.33;58.91;103147.00;5002671;28;1478;-42
2022/03/18 00:54:36;;;;;;;;;;;;;;;18.25;58.74;103156.25;5002781;28;1906;-42
2022/03/18 00:57:05;;;;;;;;;;;;;;;18.24;58.82;103164.34;5000858;28;1892;-42
2022/03/18 00:59:48;;;;;;;;;;;;;;;18.18;57.66;103154.78;5001321;28;1548;-43
2022/03/18 01:02:18;;;;;;;;;;;;;;;18.15;59.06;103144.25;5006743;28;1831;-42
2022/03/18 01:04:46;;;;;;;;;;;;;;;18.11;59.46;103153.34;5012520;28;1783;-42
2022/03/18 01:07:15;;;;;;;;;;;;;;;18.18;59.18;103146.75;5005266;28;1695;-42
2022/03/18 01:09:45;;;;;;;;;;;;;;;18.18;58.65;103162.81;4995459;28;1796;-42
2022/03/18 01:12:14;;;;;;;;;;;;;;;18.29;58.77;103173.06;4994685;28;1819;-42
2022/03/18 01:14:43;;;;;;;;;;;;;;;18.21;58.83;103162.69;5004084;28;1903;-42
2022/03/18 01:17:12;;;;;;;;;;;;;;;18.18;59.24;103170.84;5012345;28;1625;-42
2022/03/18 01:19:42;;;;;;;;;;;;;;;18.18;59.35;103170.84;5011966;28;1739;-42
2022/03/18 01:22:18;;;;;;;;;;;;;;;18.16;59.25;103164.69;5001476;28;1589;-42
2022/03/18 01:24:52;;;;;;;;;;;;;;;18.15;59.20;103176.38;5007539;28;1668;-42
2022/03/18 01:27:26;;;;;;;;;;;;;;;18.16;58.99;103174.56;5008310;28;1514;-42
2022/03/18 01:29:56;;;;;;;;;;;;;;;18.16;59.41;103166.53;5013490;28;1658;-42
2022/03/18 01:32:33;;;;;;;;;;;;;;;18.13;58.88;103172.03;5008594;28;1963;-42
2022/03/18 01:37:52;;;;;;;;;;;;;;;18.06;59.31;103166.06;4997036;28;2292;-42
2022/03/18 01:40:22;;;;;;;;;;;;;;;18.06;59.29;103168.75;5004788;28;1285;-42
2022/03/18 01:42:49;;;;;;;;;;;;;;;18.05;59.26;103181.28;5008424;28;1450;-42
2022/03/18 01:45:18;;;;;;;;;;;;;;;18.01;59.46;103170.78;5006285;28;1500;-42
2022/03/18 01:47:48;;;;;;;;;;;;;;;18.02;60.11;103183.22;5011303;28;1779;-43
2022/03/18 01:50:19;;;;;;;;;;;;;;;18.05;59.46;103167.03;5011856;28;1831;-42
2022/03/18 01:52:51;;;;;;;;;;;;;;;18.14;59.72;103163.91;5012845;28;1657;-42
2022/03/18 01:55:24;;;;;;;;;;;;;;;18.17;59.52;103169.13;5004311;28;1940;-42
2022/03/18 01:57:53;;;;;;;;;;;;;;;18.07;59.04;103173.19;5010888;28;1613;-42
2022/03/18 02:00:24;;;;;;;;;;;;;;;18.01;59.32;103181.50;5007887;28;1533;-42
2022/03/18 02:02:52;;;;;;;;;;;;;;;17.93;59.29;103180.97;5012270;28;1712;-42
2022/03/18 02:05:23;;;;;;;;;;;;;;;17.93;59.61;103192.56;5009214;28;1689;-42
2022/03/18 02:07:55;;;;;;;;;;;;;;;17.96;59.64;103186.19;5008379;28;1754;-42
2022/03/18 02:10:23;;;;;;;;;;;;;;;17.99;59.08;103192.28;5010335;28;1772;-42
2022/03/18 02:12:50;;;;;;;;;;;;;;;18.02;59.17;103196.59;5006478;28;1653;-42
2022/03/18 02:15:19;;;;;;;;;;;;;;;18.19;58.67;103194.03;5013788;28;1906;-42
2022/03/18 02:17:48;;;;;;;;;;;;;;;18.29;58.76;103195.34;5006091;28;2095;-42
2022/03/18 02:20:17;;;;;;;;;;;;;;;18.37;58.94;103196.81;5008610;28;1628;-42
2022/03/18 02:22:50;;;;;;;;;;;;;;;18.38;58.78;103199.41;5010882;28;1435;-42
2022/03/18 02:25:20;;;;;;;;;;;;;;;18.39;58.30;103194.91;5008256;28;1405;-42
2022/03/18 02:28:16;;;;;;;;;;;;;;;18.43;58.06;103207.22;5013388;28;1561;-42
2022/03/18 02:30:44;;;;;;;;;;;;;;;18.39;58.58;103206.50;5001115;28;1155;-42
2022/03/18 02:33:11;;;;;;;;;;;;;;;18.42;58.53;103217.09;5009435;28;1839;-42
2022/03/18 02:35:43;;;;;;;;;;;;;;;18.41;58.33;103218.00;5013687;28;1958;-43
2022/03/18 02:38:15;;;;;;;;;;;;;;;18.37;57.78;103212.88;4999719;28;1605;-43
2022/03/18 02:40:44;;;;;;;;;;;;;;;18.40;58.45;103223.44;5015053;28;1939;-42
2022/03/18 02:43:13;;;;;;;;;;;;;;;18.35;58.23;103225.47;5013873;28;1716;-42
2022/03/18 02:48:20;;;;;;;;;;;;;;;18.23;58.01;103222.41;5006280;28;2102;-42
2022/03/18 02:50:47;;;;;;;;;;;;;;;18.21;58.06;103228.78;5009656;28;1568;-42
2022/03/18 02:53:19;;;;;;;;;;;;;;;18.15;57.61;103235.28;5008942;28;1462;-42
2022/03/18 02:55:49;;;;;;;;;;;;;;;18.11;57.41;103236.38;5005336;28;1910;-42
2022/03/18 02:58:18;;;;;;;;;;;;;;;18.06;57.44;103243.72;5009631;28;1748;-42
2022/03/18 03:00:46;;;;;;;;;;;;;;;18.01;56.25;103232.38;5101207;23;3623;-43
2022/03/18 03:03:12;;;;;;;;;;;;;;;17.97;56.44;103236.97;4992040;28;2072;-41
2022/03/18 03:08:28;;;;;;;;;;;;;;;17.97;57.62;103249.50;4993531;28;1387;-42
2022/03/18 03:10:56;;;;;;;;;;;;;;;17.98;57.28;103253.91;4994226;28;1658;-42
2022/03/18 03:13:25;;;;;;;;;;;;;;;18.00;57.61;103260.94;4987404;28;1408;-42
2022/03/18 03:15:56;;;;;;;;;;;;;;;17.95;57.72;103259.41;4993503;28;1915;-42
2022/03/18 03:18:25;;;;;;;;;;;;;;;17.94;57.81;103258.53;4993945;28;1922;-42
2022/03/18 03:21:00;;;;;;;;;;;;;;;17.96;57.69;103272.72;4982276;28;1737;-42
2022/03/18 03:23:30;;;;;;;;;;;;;;;17.93;57.70;103255.94;4993810;28;1525;-42
2022/03/18 03:25:57;;;;;;;;;;;;;;;17.94;57.74;103273.72;4987162;28;1651;-42
2022/03/18 03:28:24;;;;;;;;;;;;;;;18.02;57.26;103269.75;4995001;28;1525;-42
2022/03/18 03:30:54;;;;;;;;;;;;;;;18.27;56.69;103269.53;4995940;28;1533;-42
2022/03/18 03:33:21;;;;;;;;;;;;;;;18.57;56.96;103271.75;4992739;28;1721;-42
2022/03/18 03:35:48;;;;;;;;;;;;;;;18.81;56.58;103261.72;4977899;28;1965;-42
2022/03/18 03:38:25;;;;;;;;;;;;;;;19.25;54.61;103281.94;4989663;28;1736;-42
2022/03/18 03:40:58;;;;;;;;;;;;;;;19.66;54.31;103270.94;4981740;28;1575;-42
2022/03/18 03:43:28;;;;;;;;;;;;;;;19.52;53.48;103277.03;4986137;28;1645;-42
2022/03/18 03:45:55;;;;;;;;;;;;;;;19.30;54.88;103290.66;4985550;28;1008;-43
2022/03/18 03:48:23;;;;;;;;;;;;;;;19.12;54.49;103287.06;4992723;28;1020;-42
2022/03/18 03:50:53;;;;;;;;;;;;;;;19.11;54.47;103274.56;4990263;28;1876;-42
2022/03/18 03:53:29;;;;;;;;;;;;;;;19.25;54.88;103298.03;4992802;28;1553;-42
2022/03/18 03:55:59;;;;;;;;;;;;;;;19.18;54.21;103285.84;4992049;28;2011;-42
2022/03/18 03:58:28;;;;;;;;;;;;;;;18.99;55.57;103297.50;4980243;28;1804;-42
2022/03/18 04:00:55;;;;;;;;;;;;;;;18.76;55.56;103309.28;4993744;28;1354;-42
2022/03/18 04:03:25;;;;;;;;;;;;;;;18.69;55.45;103316.72;4976593;28;1274;-42
2022/03/18 04:06:01;;;;;;;;;;;;;;;18.60;56.43;103305.56;4987744;28;1609;-42
2022/03/18 04:08:29;;;;;;;;;;;;;;;18.55;55.90;103315.66;4993383;28;1697;-42
2022/03/18 04:11:10;;;;;;;;;;;;;;;18.53;55.12;103326.44;4981170;28;1678;-42
2022/03/18 04:13:40;;;;;;;;;;;;;;;18.48;56.39;103325.75;4985454;28;1737;-42
2022/03/18 04:16:09;;;;;;;;;;;;;;;18.37;55.88;103312.84;4995193;28;1914;-42
2022/03/18 04:18:38;;;;;;;;;;;;;;;18.36;56.08;103327.16;4989224;28;1758;-43
2022/03/18 04:21:06;;;;;;;;;;;;;;;18.33;56.09;103334.50;4995080;28;1402;-42
2022/03/18 04:23:36;;;;;;;;;;;;;;;18.24;56.60;103330.41;4991141;28;1745;-41
2022/03/18 04:26:03;;;;;;;;;;;;;;;18.21;56.52;103336.78;4983418;28;1632;-42
2022/03/18 04:28:30;;;;;;;;;;;;;;;18.22;55.97;103340.31;4987436;28;1706;-43
2022/03/18 04:31:00;;;;;;;;;;;;;;;18.18;55.89;103347.63;4995297;28;1736;-44
2022/03/18 04:33:29;;;;;;;;;;;;;;;18.09;55.84;103348.91;4995258;28;1534;-41
2022/03/18 04:35:55;;;;;;;;;;;;;;;18.09;55.51;103342.69;4987939;28;1906;-41
2022/03/18 04:38:24;;;;;;;;;;;;;;;18.03;56.19;103348.31;4993368;28;1771;-42
2022/03/18 04:40:53;;;;;;;;;;;;;;;17.98;55.93;103347.63;4981349;28;1973;-42
2022/03/18 04:43:24;;;;;;;;;;;;;;;17.96;55.36;103352.16;4979761;28;1489;-41
2022/03/18 04:45:51;;;;;;;;;;;;;;;17.92;55.82;103356.78;4986191;28;1390;-42
2022/03/18 04:48:21;;;;;;;;;;;;;;;17.92;55.37;103366.63;4990948;28;1807;-42
2022/03/18 04:50:51;;;;;;;;;;;;;;;17.88;55.63;103365.88;4987662;28;1420;-42
2022/03/18 04:53:22;;;;;;;;;;;;;;;18.00;56.51;103369.84;4982555;28;1572;-42
2022/03/18 04:55:51;;;;;;;;;;;;;;;18.00;57.08;103370.69;4990989;28;1902;-42
2022/03/18 04:58:21;;;;;;;;;;;;;;;18.10;56.80;103373.84;4979111;28;1634;-41
2022/03/18 05:00:49;;;;;;;;;;;;;;;18.02;56.91;103366.16;4975578;28;1134;-41
2022/03/18 05:03:17;;;;;;;;;;;;;;;18.04;56.60;103371.44;4985122;28;1949;-42
2022/03/18 05:05:51;;;;;;;;;;;;;;;18.02;56.76;103376.00;4989873;28;1611;-42
2022/03/18 05:08:17;;;;;;;;;;;;;;;17.99;56.89;103363.63;4984531;28;1590;-42
2022/03/18 05:10:48;;;;;;;;;;;;;;;17.99;56.58;103370.78;4981749;28;1430;-42
2022/03/18 05:13:16;;;;;;;;;;;;;;;18.01;56.56;103377.81;4989317;28;1610;-42
2022/03/18 05:15:46;;;;;;;;;;;;;;;18.02;56.75;103382.22;4990444;28;1976;-42
2022/03/18 05:18:13;;;;;;;;;;;;;;;18.08;56.51;103378.41;4989764;28;1569;-42
2022/03/18 05:20:40;;;;;;;;;;;;;;;18.04;56.52;103385.69;4985300;28;1394;-42
2022/03/18 05:23:12;;;;;;;;;;;;;;;18.04;56.71;103387.50;4988606;28;1725;-41
2022/03/18 05:25:40;;;;;;;;;;;;;;;17.99;56.93;103400.25;4990359;28;1073;-42
2022/03/18 05:28:11;;;;;;;;;;;;;;;17.98;56.58;103398.47;4984432;28;2057;-42
2022/03/18 05:30:41;;;;;;;;;;;;;;;17.95;56.69;103404.84;4990486;28;1368;-42
2022/03/18 05:33:11;;;;;;;;;;;;;;;17.91;56.67;103407.72;4993780;28;1989;-42
2022/03/18 05:35:41;;;;;;;;;;;;;;;17.93;56.70;103411.22;4978443;28;1906;-42
2022/03/18 05:38:14;;;;;;;;;;;;;;;17.91;56.75;103416.63;4991260;28;1693;-42
2022/03/18 05:40:41;;;;;;;;;;;;;;;17.91;56.69;103411.28;4985914;28;1806;-42
2022/03/18 05:43:10;;;;;;;;;;;;;;;17.86;56.42;103406.09;4987182;28;1427;-41
2022/03/18 05:45:37;;;;;;;;;;;;;;;17.87;56.76;103396.28;4990647;28;1408;-42
2022/03/18 05:48:06;;;;;;;;;;;;;;;17.88;56.53;103416.72;4987112;28;1739;-42
2022/03/18 05:50:34;;;;;;;;;;;;;;;17.92;56.04;103415.66;4980081;28;1962;-42
2022/03/18 05:53:03;;;;;;;;;;;;;;;17.94;56.24;103418.28;4986681;28;1538;-42
2022/03/18 05:58:16;;;;;;;;;;;;;;;17.94;56.24;103413.81;4988360;28;1316;-43
2022/03/18 06:00:47;;;;;;;;;;;;;;;17.97;55.86;103413.69;4990608;28;1792;-42
2022/03/18 06:03:13;;;;;;;;;;;;;;;18.00;55.85;103426.94;4986233;28;1878;-42
2022/03/18 06:05:40;;;;;;;;;;;;;;;17.99;55.37;103417.16;4991861;28;1908;-42
2022/03/18 06:13:40;;;;;;;;;;;;;;;19.89;54.35;103411.22;4984990;28;1890;-42
2022/03/18 06:16:06;;;;;;;;;;;;;;;20.56;51.34;103415.81;4992625;28;1911;-43
2022/03/18 06:18:35;;;;;;;;;;;;;;;20.98;51.38;103424.38;4987533;28;1621;-43
2022/03/18 06:21:06;;;;;;;;;;;;;;;20.52;53.44;103416.94;4989462;28;1306;-43
2022/03/18 06:23:43;;;;;;;;;;;;;;;20.52;53.61;103427.69;4989325;28;1939;-43
2022/03/18 06:26:15;;;;;;;;;;;;;;;20.51;52.69;103431.31;4985201;28;1728;-43
2022/03/18 06:28:45;;;;;;;;;;;;;;;20.43;54.76;103420.97;4982466;28;1658;-42
2022/03/18 06:31:19;;;;;;;;;;;;;;;20.92;54.48;103441.72;4980262;28;1604;-42
2022/03/18 06:33:47;;;;;;;;;;;;;;;20.73;53.78;103430.19;4991376;28;1618;-43
2022/03/18 06:36:14;;;;;;;;;;;;;;;20.69;54.37;103434.00;4989567;28;1902;-42
2022/03/18 06:38:41;;;;;;;;;;;;;;;20.56;53.27;103423.00;4983158;28;1544;-42
2022/03/18 06:41:08;;;;;;;;;;;;;;;20.92;51.88;103430.94;4986658;28;1487;-42
2022/03/18 06:43:38;;;;;;;;;;;;;;;20.43;53.33;103428.16;4988736;28;2042;-42
2022/03/18 06:46:06;;;;;;;;;;;;;;;20.44;54.17;103422.69;4984913;28;1669;-42
2022/03/18 06:48:32;;;;;;;;;;;;;;;20.44;53.27;103414.63;4991280;28;1670;-42
2022/03/18 06:51:00;;;;;;;;;;;;;;;20.37;54.73;103417.72;4990054;28;1801;-42
2022/03/18 06:53:30;;;;;;;;;;;;;;;20.45;53.59;103431.63;4979908;28;1814;-40
2022/03/18 06:56:00;;;;;;;;;;;;;;;20.58;54.03;103431.88;4992512;28;1989;-39
2022/03/18 06:58:29;;;;;;;;;;;;;;;20.38;56.16;103419.47;4986411;28;1952;-39
2022/03/18 07:00:59;;;;;;;;;;;;;;;20.30;55.98;103416.31;4975574;28;1901;-41
2022/03/18 07:03:26;;;;;;;;;;;;;;;20.30;55.01;103427.94;4986587;28;1455;-38
2022/03/18 07:05:52;;;;;;;;;;;;;;;20.08;56.44;103435.38;4981762;28;1971;-38
2022/03/18 07:08:20;;;;;;;;;;;;;;;20.14;55.86;103432.38;4987395;28;1979;-39
2022/03/18 07:10:49;;;;;;;;;;;;;;;20.09;55.79;103432.56;4988202;28;1582;-41
2022/03/18 07:13:18;;;;;;;;;;;;;;;20.04;56.17;103407.78;4990118;28;1780;-41
2022/03/18 07:15:46;;;;;;;;;;;;;;;19.96;56.72;103424.28;4988959;28;1910;-41
2022/03/18 07:18:15;;;;;;;;;;;;;;;20.11;55.91;103433.38;4984162;28;1651;-41
2022/03/18 07:20:46;;;;;;;;;;;;;;;20.02;56.55;103444.59;4991492;28;2024;-41
2022/03/18 07:23:16;;;;;;;;;;;;;;;20.05;55.33;103439.94;4990766;28;1577;-41
2022/03/18 07:25:50;;;;;;;;;;;;;;;19.96;56.88;103429.66;4988815;28;1426;-42
2022/03/18 07:28:17;;;;;;;;;;;;;;;19.96;56.41;103437.72;4985464;28;1627;-41
2022/03/18 07:30:45;;;;;;;;;;;;;;;19.90;56.77;103439.84;4996327;28;1850;-41
2022/03/18 07:33:12;;;;;;;;;;;;;;;20.07;55.40;103442.53;4988289;28;1564;-41
2022/03/18 07:35:46;;;;;;;;;;;;;;;19.98;55.88;103443.00;4983629;28;1975;-40
2022/03/18 07:38:14;;;;;;;;;;;;;;;19.95;55.85;103432.41;4984118;28;1889;-41
2022/03/18 07:40:43;;;;;;;;;;;;;;;19.95;56.72;103433.28;4992217;28;1260;-42
2022/03/18 07:43:13;;;;;;;;;;;;;;;19.94;55.64;103422.63;4991912;28;1929;-41
2022/03/18 07:45:40;;;;;;;;;;;;;;;19.90;55.93;103426.41;4990642;28;1740;-41
2022/03/18 07:48:16;;;;;;;;;;;;;;;19.92;55.89;103421.84;4991982;28;1860;-41
2022/03/18 07:50:44;;;;;;;;;;;;;;;19.79;56.17;103427.78;4987536;28;1637;-41
2022/03/18 07:53:10;;;;;;;;;;;;;;;19.93;55.97;103435.16;4988620;28;2454;-41
2022/03/18 07:55:38;;;;;;;;;;;;;;;19.97;57.08;103420.63;4988773;28;1898;-41
2022/03/18 07:58:07;;;;;;;;;;;;;;;19.89;56.96;103428.22;4990911;28;1473;-41
2022/03/18 08:00:36;;;;;;;;;;;;;;;19.78;57.42;103433.25;4981572;28;1035;-41
2022/03/18 08:03:17;;;;;;;;;;;;;;;19.70;56.92;103430.91;4982814;28;1780;-41
2022/03/18 08:05:45;;;;;;;;;;;;;;;19.73;56.72;103433.47;4991151;28;1819;-41
2022/03/18 08:08:11;;;;;;;;;;;;;;;19.67;57.20;103423.00;4987402;28;1909;-41
2022/03/18 08:10:40;;;;;;;;;;;;;;;19.67;56.97;103433.75;4986386;28;1322;-41
2022/03/18 08:13:08;;;;;;;;;;;;;;;19.71;56.46;103410.31;4985238;28;2182;-40
2022/03/18 08:15:35;;;;;;;;;;;;;;;19.58;57.12;103437.75;4995699;28;1968;-41
2022/03/18 08:18:02;;;;;;;;;;;;;;;19.61;56.97;103424.16;4989899;28;1860;-41
2022/03/18 08:20:51;;;;;;;;;;;;;;;19.58;56.47;103434.22;4991020;28;1545;-42
2022/03/18 08:26:01;;;;;;;;;;;;;;;19.57;55.15;103438.69;4985130;28;2185;-42
2022/03/18 08:28:28;;;;;;;;;;;;;;;19.73;54.93;103417.34;4992677;28;1489;-41
2022/03/18 08:30:56;;;;;;;;;;;;;;;19.53;56.09;103436.22;4989977;28;1447;-42
2022/03/18 08:33:27;;;;;;;;;;;;;;;19.46;55.44;103423.09;4988937;28;1450;-41
2022/03/18 08:35:57;;;;;;;;;;;;;;;19.43;54.59;103441.16;4985546;28;1911;-41
2022/03/18 08:38:29;;;;;;;;;;;;;;;19.44;55.85;103427.69;4992465;28;1608;-41
2022/03/18 08:41:04;;;;;;;;;;;;;;;19.46;55.72;103441.91;4989241;28;1560;-40
2022/03/18 08:43:30;;;;;;;;;;;;;;;19.46;53.18;103417.75;4984651;28;1548;-43
2022/03/18 08:45:57;;;;;;;;;;;;;;;19.56;52.31;103431.59;4994413;28;1609;-42
2022/03/18 08:48:24;;;;;;;;;;;;;;;19.56;53.26;103411.94;4990167;28;1247;-40
2022/03/18 08:50:52;;;;;;;;;;;;;;;19.65;53.58;103441.00;4988249;28;2076;-40
2022/03/18 08:53:19;;;;;;;;;;;;;;;19.70;53.98;103438.09;4989071;28;1660;-40
2022/03/18 08:55:49;;;;;;;;;;;;;;;19.68;52.75;103424.75;4985327;28;1995;-40
2022/03/18 08:58:20;;;;;;;;;;;;;;;19.77;52.84;103440.41;4988328;28;1875;-40
2022/03/18 09:00:49;;;;;;;;;;;;;;;19.77;52.82;103427.00;4991481;28;1566;-40
2022/03/18 09:03:19;;;;;;;;;;;;;;;19.76;49.74;103433.34;4992160;28;1945;-39
2022/03/18 09:05:49;;;;;;;;;;;;;;;19.80;50.65;103434.06;4987437;28;1883;-41
2022/03/18 09:08:18;;;;;;;;;;;;;;;19.76;51.69;103427.09;4988462;28;2044;-40
2022/03/18 09:10:51;;;;;;;;;;;;;;;19.79;51.16;103438.53;4988679;28;1755;-40
2022/03/18 09:13:17;;;;;;;;;;;;;;;19.97;49.80;103433.19;4992829;28;1620;-40
2022/03/18 09:15:45;;;;;;;;;;;;;;;20.16;50.21;103415.22;4994650;28;1883;-40
2022/03/18 09:18:14;;;;;;;;;;;;;;;20.20;50.68;103432.03;4986451;28;1561;-39
2022/03/18 09:20:50;;;;;;;;;;;;;;;20.21;50.81;103429.28;4990479;28;1965;-42
2022/03/18 09:23:20;;;;;;;;;;;;;;;20.37;51.70;103428.47;4989494;28;1569;-41
2022/03/18 09:25:50;;;;;;;;;;;;;;;20.25;51.42;103419.22;4987456;28;1637;-40
2022/03/18 09:28:21;;;;;;;;;;;;;;;20.25;52.65;103412.06;4988941;28;1717;-40
2022/03/18 09:30:49;;;;;;;;;;;;;;;20.08;52.10;103416.56;4994135;28;1721;-40
2022/03/18 09:33:17;;;;;;;;;;;;;;;20.03;51.99;103435.56;4990293;28;1880;-40
2022/03/18 09:35:44;;;;;;;;;;;;;;;20.01;52.66;103432.97;4988188;28;1911;-41
2022/03/18 09:38:10;;;;;;;;;;;;;;;20.14;52.68;103432.38;4993861;28;1773;-40
2022/03/18 09:40:39;;;;;;;;;;;;;;;20.16;52.81;103431.31;4981954;28;1572;-41
2022/03/18 09:43:14;;;;;;;;;;;;;;;19.90;52.38;103429.97;4989169;28;1737;-41
2022/03/18 09:45:41;;;;;;;;;;;;;;;19.91;51.44;103436.19;4986082;28;1885;-41
2022/03/18 09:48:10;;;;;;;;;;;;;;;19.89;51.39;103440.78;4989905;28;1951;-40
2022/03/18 09:50:51;;;;;;;;;;;;;;;19.75;52.04;103442.31;4986816;28;1926;-40
2022/03/18 09:53:18;;;;;;;;;;;;;;;19.72;53.61;103425.50;4986803;28;1823;-41
2022/03/18 09:55:45;;;;;;;;;;;;;;;19.77;50.53;103413.56;4992376;28;1985;-40
2022/03/18 09:58:15;;;;;;;;;;;;;;;19.83;53.10;103439.25;4985247;28;1834;-40
2022/03/18 10:00:44;;;;;;;;;;;;;;;19.79;51.49;103438.53;4992883;28;1573;-41
2022/03/18 10:03:12;;;;;;;;;;;;;;;19.91;52.70;103441.56;4989307;28;1833;-41
2022/03/18 10:05:52;;;;;;;;;;;;;;;19.90;52.54;103413.84;4983369;28;1669;-42
2022/03/18 10:08:21;;;;;;;;;;;;;;;19.96;52.13;103431.47;4981460;28;1838;-42
2022/03/18 10:10:48;;;;;;;;;;;;;;;19.90;53.99;103418.34;4982711;28;1638;-42
2022/03/18 10:13:20;;;;;;;;;;;;;;;19.86;54.27;103431.94;4989958;28;1645;-41
2022/03/18 10:15:47;;;;;;;;;;;;;;;19.84;54.21;103431.13;4993288;28;1911;-42
2022/03/18 10:18:18;;;;;;;;;;;;;;;19.80;52.73;103432.22;4985091;28;1839;-41
2022/03/18 10:20:46;;;;;;;;;;;;;;;19.84;52.27;103430.28;4981386;28;1808;-40
2022/03/18 10:23:21;;;;;;;;;;;;;;;19.87;52.30;103422.03;4985461;28;1748;-40
2022/03/18 10:25:53;;;;;;;;;;;;;;;19.76;54.59;103414.53;4984685;28;1726;-41
2022/03/18 10:28:36;;;;;;;;;;;;;;;19.77;53.54;103429.69;4988296;28;2326;-41
2022/03/18 10:31:19;;;;;;;;;;;;;;;19.68;52.29;103430.13;4990712;28;1905;-41
2022/03/18 10:39:21;;;;;;;;;;;;;;;19.68;53.27;103408.66;4991867;28;1640;-42
2022/03/18 10:41:52;;;;;;;;;;;;;;;19.61;52.71;103407.19;4988359;28;1527;-42
2022/03/18 10:44:21;;;;;;;;;;;;;;;19.53;53.83;103398.66;4991870;28;1592;-42
2022/03/18 10:47:03;;;;;;;;;;;;;;;19.47;54.81;103399.81;4994030;28;1576;-41
2022/03/18 10:49:33;;;;;;;;;;;;;;;19.41;54.85;103410.84;4985850;28;1446;-42
2022/03/18 10:52:09;;;;;;;;;;;;;;;19.47;56.00;103395.31;4985427;28;1837;-41
2022/03/18 10:54:40;;;;;;;;;;;;;;;19.47;54.98;103399.81;4985871;28;1275;-41
2022/03/18 10:57:14;;;;;;;;;;;;;;;19.43;55.15;103380.31;4992507;28;1906;-40
2022/03/18 10:59:43;;;;;;;;;;;;;;;19.50;54.85;103378.22;4993648;28;1413;-41
2022/03/18 11:02:15;;;;;;;;;;;;;;;19.41;54.36;103392.94;4992735;28;1610;-41
2022/03/18 11:04:54;;;;;;;;;;;;;;;19.38;56.19;103387.72;4990344;28;1565;-41
2022/03/18 11:07:31;;;;;;;;;;;;;;;19.41;54.64;103367.91;4984881;28;1507;-41
2022/03/18 11:12:57;;;;;;;;;;;;;;;18.14;55.20;103155.88;4966400;28;1695;-40
2022/03/18 11:15:28;;;;;;;;;;;;;;;19.64;54.17;103369.47;4987365;28;1172;-41
2022/03/18 11:18:04;;;;;;;;;;;;;;;20.12;52.54;103373.34;4996096;28;1946;-41
2022/03/18 11:20:42;;;;;;;;;;;;;;;19.97;53.39;103382.16;4986963;28;1971;-41
2022/03/18 11:23:13;;;;;;;;;;;;;;;20.03;52.93;103366.63;4996700;28;1850;-41
2022/03/18 11:25:41;;;;;;;;;;;;;;;20.03;52.74;103371.09;4980365;28;1367;-40
2022/03/18 11:28:08;;;;;;;;;;;;;;;20.07;53.73;103367.31;4983382;28;1489;-40
2022/03/18 11:30:35;;;;;;;;;;;;;;;20.10;53.36;103361.78;4990684;28;1917;-40
2022/03/18 11:33:22;;;;;;;;;;;;;;;20.16;53.43;103355.25;4990675;28;1772;-41
2022/03/18 11:36:09;;;;;;;;;;;;;;;20.13;53.11;103350.88;4980938;28;1613;-40
2022/03/18 11:39:02;;;;;;;;;;;;;;;20.10;53.23;103340.31;4988123;28;1258;-40
2022/03/18 11:41:45;;;;;;;;;;;;;;;20.36;51.82;103335.38;4989526;28;1875;-41
2022/03/18 11:44:12;;;;;;;;;;;;;;;20.09;53.26;103349.28;4992027;28;1556;-41
2022/03/18 11:46:40;;;;;;;;;;;;;;;20.00;53.11;103331.84;4992322;28;1955;-41
2022/03/18 11:49:09;;;;;;;;;;;;;;;19.99;53.70;103326.56;4988313;28;1471;-41
2022/03/18 11:51:37;;;;;;;;;;;;;;;20.29;53.85;103347.38;4994902;28;1827;-41
2022/03/18 11:54:07;;;;;;;;;;;;;;;20.55;52.32;103325.38;4995140;28;1859;-41
2022/03/18 11:56:47;;;;;;;;;;;;;;;20.70;51.62;103333.59;4990906;28;1914;-41
2022/03/18 11:59:38;;;;;;;;;;;;;;;20.82;52.36;103325.69;4987522;28;1065;-40
2022/03/18 12:02:06;;;;;;;;;;;;;;;20.81;52.23;103325.78;4981396;28;1841;-43
2022/03/18 12:04:40;;;;;;;;;;;;;;;20.75;53.13;103320.72;4992911;28;2036;-41
2022/03/18 12:07:16;;;;;;;;;;;;;;;20.73;52.89;103326.22;4984048;28;2013;-42
2022/03/18 12:09:55;;;;;;;;;;;;;;;20.65;52.63;103336.50;4992258;28;1824;-41
2022/03/18 12:12:31;;;;;;;;;;;;;;;20.68;52.54;103317.53;4991166;28;1643;-41
2022/03/18 12:15:03;;;;;;;;;;;;;;;20.60;52.87;103328.69;4994698;28;1561;-41
2022/03/18 12:17:30;;;;;;;;;;;;;;;20.66;52.63;103317.59;4989814;28;1906;-41
2022/03/18 12:19:59;;;;;;;;;;;;;;;20.66;54.09;103314.06;4988329;28;1654;-40
2022/03/18 12:22:32;;;;;;;;;;;;;;;20.60;53.95;103317.09;4988541;28;1683;-41
2022/03/18 12:25:01;;;;;;;;;;;;;;;20.72;55.11;103304.78;4995145;28;1965;-41
2022/03/18 12:27:29;;;;;;;;;;;;;;;20.84;54.35;103307.66;4994492;28;1979;-41
2022/03/18 12:29:58;;;;;;;;;;;;;;;20.86;53.80;103307.56;4986344;28;1138;-41
2022/03/18 12:32:28;;;;;;;;;;;;;;;20.70;54.90;103290.56;4989298;28;1901;-40
2022/03/18 12:34:57;;;;;;;;;;;;;;;20.73;54.51;103296.63;4993152;28;1732;-41
2022/03/18 12:37:30;;;;;;;;;;;;;;;20.78;55.20;103301.75;4986475;28;2239;-42
2022/03/18 12:40:13;;;;;;;;;;;;;;;21.06;54.74;103307.28;4984890;28;1807;-43
2022/03/18 12:42:47;;;;;;;;;;;;;;;20.77;54.25;103300.00;4984185;28;1735;-42
2022/03/18 12:45:23;;;;;;;;;;;;;;;20.78;55.55;103293.69;4988265;28;1594;-41
2022/03/18 12:47:50;;;;;;;;;;;;;;;20.55;54.96;103293.13;4986916;28;1740;-41
2022/03/18 12:50:17;;;;;;;;;;;;;;;20.58;55.38;103292.94;4989174;28;1691;-42
2022/03/18 12:52:47;;;;;;;;;;;;;;;20.57;55.54;103320.78;4991199;28;1797;-41
2022/03/18 12:55:18;;;;;;;;;;;;;;;20.44;55.84;103308.94;4981559;28;1465;-41
2022/03/18 12:57:48;;;;;;;;;;;;;;;20.44;55.18;103295.50;4992529;28;1902;-41
2022/03/18 13:00:17;;;;;;;;;;;;;;;20.60;56.54;103284.81;4986110;28;1692;-41
2022/03/18 13:03:05;;;;;;;;;;;;;;;20.64;54.77;103286.38;4991621;28;1824;-40
2022/03/18 13:05:34;;;;;;;;;;;;;;;20.68;55.52;103289.78;4978883;28;1664;-41
2022/03/18 13:08:08;;;;;;;;;;;;;;;20.75;55.66;103296.53;4987593;28;1473;-41
2022/03/18 13:10:46;;;;;;;;;;;;;;;20.54;55.75;103266.31;4991905;28;1414;-40
2022/03/18 13:13:17;;;;;;;;;;;;;;;20.87;54.65;103287.81;4987023;28;1601;-41
2022/03/18 13:16:06;;;;;;;;;;;;;;;20.67;55.04;103283.50;4994430;28;1680;-40
2022/03/18 13:18:35;;;;;;;;;;;;;;;21.19;53.61;103290.47;4989186;28;1978;-40
2022/03/18 13:21:06;;;;;;;;;;;;;;;20.74;55.33;103292.13;4984935;28;2084;-40
2022/03/18 13:23:34;;;;;;;;;;;;;;;20.41;54.68;103272.38;4989592;28;1761;-41
2022/03/18 13:26:04;;;;;;;;;;;;;;;20.50;54.96;103268.28;4984401;28;1593;-40
2022/03/18 13:28:32;;;;;;;;;;;;;;;20.37;56.06;103276.19;4984548;28;1709;-41
2022/03/18 13:33:54;;;;;;;;;;;;;;;20.46;56.10;103277.47;4988869;28;1383;-41
2022/03/18 13:36:29;;;;;;;;;;;;;;;20.42;54.59;103270.53;4990936;28;1669;-41
2022/03/18 13:39:04;;;;;;;;;;;;;;;20.57;54.14;103250.00;4991140;28;1971;-40